sensor_id;sensor_type;location;lat;lon;timestamp;temperature;humidity
51637;DHT22;37713;53.254;6.460;2023-03-01T00:02:12;-1.10;99.90
51637;DHT22;37713;53.254;6.460;2023-03-01T00:04:37;-1.10;99.90
51637;DHT22;37713;53.254;6.460;2023-03-01T00:07:03;-1.00;99.90
51637;DHT22;37713;53.254;6.460;2023-03-01T00:09:29;-1.20;99.90
51637;DHT22;37713;53.254;6.460;2023-03-01T00:11:55;-1.30;99.90
51637;DHT22;37713;53.254;6.460;2023-03-01T00:14:20;-1.10;99.90
51637;DHT22;37713;53.254;6.460;2023-03-01T00:16:46;-1.30;99.90
51637;DHT22;37713;53.254;6.460;2023-03-01T00:19:14;-1.30;99.90
51637;DHT22;37713;53.254;6.460;2023-03-01T00:21:41;-1.30;99.90
51637;DHT22;37713;53.254;6.460;2023-03-01T00:24:07;-1.40;99.90
51637;DHT22;37713;53.254;6.460;2023-03-01T00:26:33;-1.40;99.90
51637;DHT22;37713;53.254;6.460;2023-03-01T00:28:59;-1.50;99.90
51637;DHT22;37713;53.254;6.460;2023-03-01T00:31:28;-1.50;99.90
51637;DHT22;37713;53.254;6.460;2023-03-01T00:33:56;-1.50;99.90
51637;DHT22;37713;53.254;6.460;2023-03-01T00:36:25;-1.50;99.90
51637;DHT22;37713;53.254;6.460;2023-03-01T00:38:51;-1.50;99.90
51637;DHT22;37713;53.254;6.460;2023-03-01T00:41:18;-1.50;99.90
51637;DHT22;37713;53.254;6.460;2023-03-01T00:43:45;-1.60;99.90
51637;DHT22;37713;53.254;6.460;2023-03-01T00:46:15;-1.60;99.90
51637;DHT22;37713;53.254;6.460;2023-03-01T00:48:42;-1.60;99.90
51637;DHT22;37713;53.254;6.460;2023-03-01T00:51:14;-1.60;99.90
51637;DHT22;37713;53.254;6.460;2023-03-01T00:53:40;-1.60;99.90
51637;DHT22;37713;53.254;6.460;2023-03-01T00:56:07;-1.70;99.90
51637;DHT22;37713;53.254;6.460;2023-03-01T00:58:34;-1.70;99.90
51637;DHT22;37713;53.254;6.460;2023-03-01T01:01:01;-1.70;99.90
51637;DHT22;37713;53.254;6.460;2023-03-01T01:03:32;-1.70;99.90
51637;DHT22;37713;53.254;6.460;2023-03-01T01:05:57;-1.80;99.90
51637;DHT22;37713;53.254;6.460;2023-03-01T01:08:23;-1.80;99.90
51637;DHT22;37713;53.254;6.460;2023-03-01T01:10:49;-1.80;99.90
51637;DHT22;37713;53.254;6.460;2023-03-01T01:13:15;-1.80;99.90
51637;DHT22;37713;53.254;6.460;2023-03-01T01:15:42;-1.80;99.90
51637;DHT22;37713;53.254;6.460;2023-03-01T01:18:08;-1.90;99.90
51637;DHT22;37713;53.254;6.460;2023-03-01T01:20:35;-1.80;99.90
51637;DHT22;37713;53.254;6.460;2023-03-01T01:23:02;-1.80;99.90
51637;DHT22;37713;53.254;6.460;2023-03-01T01:25:30;-1.90;99.90
51637;DHT22;37713;53.254;6.460;2023-03-01T01:27:56;-1.90;99.90
51637;DHT22;37713;53.254;6.460;2023-03-01T01:30:21;-1.90;99.90
51637;DHT22;37713;53.254;6.460;2023-03-01T01:32:47;-1.90;99.90
51637;DHT22;37713;53.254;6.460;2023-03-01T01:35:13;-2.00;99.90
51637;DHT22;37713;53.254;6.460;2023-03-01T01:37:39;-2.00;99.90
51637;DHT22;37713;53.254;6.460;2023-03-01T01:40:05;-2.00;99.90
51637;DHT22;37713;53.254;6.460;2023-03-01T01:42:31;-2.10;99.90
51637;DHT22;37713;53.254;6.460;2023-03-01T01:47:52;-2.10;99.90
51637;DHT22;37713;53.254;6.460;2023-03-01T01:50:20;-2.10;99.90
51637;DHT22;37713;53.254;6.460;2023-03-01T01:52:48;-2.10;99.90
51637;DHT22;37713;53.254;6.460;2023-03-01T01:55:19;-2.20;99.90
51637;DHT22;37713;53.254;6.460;2023-03-01T01:57:55;-2.20;99.90
51637;DHT22;37713;53.254;6.460;2023-03-01T02:00:26;-2.60;99.90
51637;DHT22;37713;53.254;6.460;2023-03-01T02:03:03;-2.50;99.90
51637;DHT22;37713;53.254;6.460;2023-03-01T02:08:02;-2.30;99.90
51637;DHT22;37713;53.254;6.460;2023-03-01T02:10:28;-2.30;99.90
51637;DHT22;37713;53.254;6.460;2023-03-01T02:12:55;-2.30;99.90
51637;DHT22;37713;53.254;6.460;2023-03-01T02:15:23;-2.40;99.90
51637;DHT22;37713;53.254;6.460;2023-03-01T02:17:49;-1.80;99.90
51637;DHT22;37713;53.254;6.460;2023-03-01T02:22:44;-2.40;99.90
51637;DHT22;37713;53.254;6.460;2023-03-01T02:30:15;-2.50;99.90
51637;DHT22;37713;53.254;6.460;2023-03-01T02:32:41;-2.50;99.90
51637;DHT22;37713;53.254;6.460;2023-03-01T02:35:13;-2.50;99.90
51637;DHT22;37713;53.254;6.460;2023-03-01T02:37:41;-2.50;99.90
51637;DHT22;37713;53.254;6.460;2023-03-01T02:40:12;-2.50;99.90
51637;DHT22;37713;53.254;6.460;2023-03-01T02:42:59;-2.50;99.90
51637;DHT22;37713;53.254;6.460;2023-03-01T02:45:26;-2.60;99.90
51637;DHT22;37713;53.254;6.460;2023-03-01T02:47:56;-2.50;99.90
51637;DHT22;37713;53.254;6.460;2023-03-01T02:50:51;-2.50;99.90
51637;DHT22;37713;53.254;6.460;2023-03-01T02:53:45;-2.50;99.90
51637;DHT22;37713;53.254;6.460;2023-03-01T02:56:15;-2.60;99.90
51637;DHT22;37713;53.254;6.460;2023-03-01T02:58:42;-2.60;99.90
51637;DHT22;37713;53.254;6.460;2023-03-01T03:01:13;-2.60;99.90
51637;DHT22;37713;53.254;6.460;2023-03-01T03:03:41;-2.50;99.90
51637;DHT22;37713;53.254;6.460;2023-03-01T03:06:07;-2.50;99.90
51637;DHT22;37713;53.254;6.460;2023-03-01T03:08:33;-2.50;99.90
51637;DHT22;37713;53.254;6.460;2023-03-01T03:10:59;-2.50;99.90
51637;DHT22;37713;53.254;6.460;2023-03-01T03:13:25;-2.60;99.90
51637;DHT22;37713;53.254;6.460;2023-03-01T03:15:57;-2.60;99.90
51637;DHT22;37713;53.254;6.460;2023-03-01T03:18:24;-2.60;99.90
51637;DHT22;37713;53.254;6.460;2023-03-01T03:20:53;-2.60;99.90
51637;DHT22;37713;53.254;6.460;2023-03-01T03:23:21;-2.60;99.90
51637;DHT22;37713;53.254;6.460;2023-03-01T03:25:50;-2.60;99.90
51637;DHT22;37713;53.254;6.460;2023-03-01T03:28:17;-2.70;99.90
51637;DHT22;37713;53.254;6.460;2023-03-01T03:30:43;-2.70;99.90
51637;DHT22;37713;53.254;6.460;2023-03-01T03:33:10;-2.70;99.90
51637;DHT22;37713;53.254;6.460;2023-03-01T03:35:47;-2.70;99.90
51637;DHT22;37713;53.254;6.460;2023-03-01T03:38:14;-2.80;99.90
51637;DHT22;37713;53.254;6.460;2023-03-01T03:40:45;-2.80;99.90
51637;DHT22;37713;53.254;6.460;2023-03-01T03:48:12;-3.10;99.90
51637;DHT22;37713;53.254;6.460;2023-03-01T03:50:39;-3.00;99.90
51637;DHT22;37713;53.254;6.460;2023-03-01T03:53:07;-3.10;99.90
51637;DHT22;37713;53.254;6.460;2023-03-01T03:55:34;-3.10;99.90
51637;DHT22;37713;53.254;6.460;2023-03-01T03:58:02;-3.20;99.90
51637;DHT22;37713;53.254;6.460;2023-03-01T04:00:36;-3.20;99.90
51637;DHT22;37713;53.254;6.460;2023-03-01T04:03:03;-3.20;99.90
51637;DHT22;37713;53.254;6.460;2023-03-01T04:05:29;-3.20;99.90
51637;DHT22;37713;53.254;6.460;2023-03-01T04:07:55;-3.20;99.90
51637;DHT22;37713;53.254;6.460;2023-03-01T04:10:32;-3.20;99.90
51637;DHT22;37713;53.254;6.460;2023-03-01T04:12:58;-3.10;99.90
51637;DHT22;37713;53.254;6.460;2023-03-01T04:15:26;-3.20;99.90
51637;DHT22;37713;53.254;6.460;2023-03-01T04:17:53;-3.10;99.90
51637;DHT22;37713;53.254;6.460;2023-03-01T04:20:25;-3.10;99.90
51637;DHT22;37713;53.254;6.460;2023-03-01T04:23:04;-3.00;99.90
51637;DHT22;37713;53.254;6.460;2023-03-01T04:25:40;-3.00;99.90
51637;DHT22;37713;53.254;6.460;2023-03-01T04:28:07;-3.00;99.90
51637;DHT22;37713;53.254;6.460;2023-03-01T04:30:34;-3.00;99.90
51637;DHT22;37713;53.254;6.460;2023-03-01T04:33:09;-3.00;99.90
51637;DHT22;37713;53.254;6.460;2023-03-01T04:35:36;-3.00;99.90
51637;DHT22;37713;53.254;6.460;2023-03-01T04:38:03;-3.00;99.90
51637;DHT22;37713;53.254;6.460;2023-03-01T04:40:29;-2.60;99.90
51637;DHT22;37713;53.254;6.460;2023-03-01T04:42:54;-3.00;99.90
51637;DHT22;37713;53.254;6.460;2023-03-01T04:45:20;-3.00;99.90
51637;DHT22;37713;53.254;6.460;2023-03-01T04:47:46;-2.90;99.90
51637;DHT22;37713;53.254;6.460;2023-03-01T04:50:15;-3.00;99.90
51637;DHT22;37713;53.254;6.460;2023-03-01T04:52:42;-3.00;99.90
51637;DHT22;37713;53.254;6.460;2023-03-01T04:55:09;-3.00;99.90
51637;DHT22;37713;53.254;6.460;2023-03-01T04:57:35;-3.00;99.90
51637;DHT22;37713;53.254;6.460;2023-03-01T05:00:02;-3.00;99.90
51637;DHT22;37713;53.254;6.460;2023-03-01T05:02:53;-2.80;99.90
51637;DHT22;37713;53.254;6.460;2023-03-01T05:05:21;-3.10;99.90
51637;DHT22;37713;53.254;6.460;2023-03-01T05:07:59;-3.10;99.90
51637;DHT22;37713;53.254;6.460;2023-03-01T05:10:28;-3.10;99.90
51637;DHT22;37713;53.254;6.460;2023-03-01T05:12:55;-3.10;99.90
51637;DHT22;37713;53.254;6.460;2023-03-01T05:15:23;-3.20;99.90
51637;DHT22;37713;53.254;6.460;2023-03-01T05:17:53;-3.20;99.90
51637;DHT22;37713;53.254;6.460;2023-03-01T05:20:20;-3.30;99.90
51637;DHT22;37713;53.254;6.460;2023-03-01T05:22:50;-3.30;99.90
51637;DHT22;37713;53.254;6.460;2023-03-01T05:25:16;-3.30;99.90
51637;DHT22;37713;53.254;6.460;2023-03-01T05:27:42;-3.40;99.90
51637;DHT22;37713;53.254;6.460;2023-03-01T05:30:08;-3.40;99.90
51637;DHT22;37713;53.254;6.460;2023-03-01T05:32:45;-3.40;99.90
51637;DHT22;37713;53.254;6.460;2023-03-01T05:35:16;-3.40;99.90
51637;DHT22;37713;53.254;6.460;2023-03-01T05:37:47;-3.40;99.90
51637;DHT22;37713;53.254;6.460;2023-03-01T05:40:16;-3.40;99.90
51637;DHT22;37713;53.254;6.460;2023-03-01T05:42:48;-3.50;99.90
51637;DHT22;37713;53.254;6.460;2023-03-01T05:45:15;-3.40;99.90
51637;DHT22;37713;53.254;6.460;2023-03-01T05:47:43;-3.50;99.90
51637;DHT22;37713;53.254;6.460;2023-03-01T05:50:21;-3.50;99.90
51637;DHT22;37713;53.254;6.460;2023-03-01T05:52:49;-3.50;99.90
51637;DHT22;37713;53.254;6.460;2023-03-01T05:55:17;-3.50;99.90
51637;DHT22;37713;53.254;6.460;2023-03-01T05:57:43;-3.50;99.90
51637;DHT22;37713;53.254;6.460;2023-03-01T06:00:10;-3.50;99.90
51637;DHT22;37713;53.254;6.460;2023-03-01T06:02:36;-3.60;99.90
51637;DHT22;37713;53.254;6.460;2023-03-01T06:05:04;-3.60;99.90
51637;DHT22;37713;53.254;6.460;2023-03-01T06:07:31;-3.60;99.90
51637;DHT22;37713;53.254;6.460;2023-03-01T06:09:56;-3.70;99.90
51637;DHT22;37713;53.254;6.460;2023-03-01T06:12:22;-3.70;99.90
51637;DHT22;37713;53.254;6.460;2023-03-01T06:14:48;-3.80;99.90
51637;DHT22;37713;53.254;6.460;2023-03-01T06:17:14;-3.80;99.90
51637;DHT22;37713;53.254;6.460;2023-03-01T06:19:40;-3.80;99.90
51637;DHT22;37713;53.254;6.460;2023-03-01T06:22:05;-3.80;99.90
51637;DHT22;37713;53.254;6.460;2023-03-01T06:24:31;-3.80;99.90
51637;DHT22;37713;53.254;6.460;2023-03-01T06:26:58;-3.80;99.90
51637;DHT22;37713;53.254;6.460;2023-03-01T06:29:24;-3.80;99.90
51637;DHT22;37713;53.254;6.460;2023-03-01T06:31:50;-3.80;99.90
51637;DHT22;37713;53.254;6.460;2023-03-01T06:34:16;-3.80;99.90
51637;DHT22;37713;53.254;6.460;2023-03-01T06:36:42;-3.80;99.90
51637;DHT22;37713;53.254;6.460;2023-03-01T06:39:08;-3.80;99.90
51637;DHT22;37713;53.254;6.460;2023-03-01T06:41:33;-3.80;99.90
51637;DHT22;37713;53.254;6.460;2023-03-01T06:44:00;-3.80;99.90
51637;DHT22;37713;53.254;6.460;2023-03-01T06:46:26;-3.70;99.90
51637;DHT22;37713;53.254;6.460;2023-03-01T06:48:51;-3.70;99.90
51637;DHT22;37713;53.254;6.460;2023-03-01T06:51:17;-3.70;99.90
51637;DHT22;37713;53.254;6.460;2023-03-01T06:53:43;-3.70;99.90
51637;DHT22;37713;53.254;6.460;2023-03-01T06:56:11;-3.70;99.90
51637;DHT22;37713;53.254;6.460;2023-03-01T06:58:36;-3.60;99.90
51637;DHT22;37713;53.254;6.460;2023-03-01T07:01:08;-3.60;99.90
51637;DHT22;37713;53.254;6.460;2023-03-01T07:03:34;-3.60;99.90
51637;DHT22;37713;53.254;6.460;2023-03-01T07:06:00;-3.50;99.90
51637;DHT22;37713;53.254;6.460;2023-03-01T07:08:26;-3.50;99.90
51637;DHT22;37713;53.254;6.460;2023-03-01T07:10:56;-3.40;99.90
51637;DHT22;37713;53.254;6.460;2023-03-01T07:13:22;-3.10;99.90
51637;DHT22;37713;53.254;6.460;2023-03-01T07:15:47;-3.30;99.90
51637;DHT22;37713;53.254;6.460;2023-03-01T07:18:13;-3.30;99.90
51637;DHT22;37713;53.254;6.460;2023-03-01T07:20:39;-3.60;99.90
51637;DHT22;37713;53.254;6.460;2023-03-01T07:23:05;-3.20;99.90
51637;DHT22;37713;53.254;6.460;2023-03-01T07:25:31;-3.10;99.90
51637;DHT22;37713;53.254;6.460;2023-03-01T07:27:58;-3.00;99.90
51637;DHT22;37713;53.254;6.460;2023-03-01T07:30:24;-3.00;99.90
51637;DHT22;37713;53.254;6.460;2023-03-01T07:32:57;-2.90;99.90
51637;DHT22;37713;53.254;6.460;2023-03-01T07:35:25;-2.90;99.90
51637;DHT22;37713;53.254;6.460;2023-03-01T07:37:51;-2.80;99.90
51637;DHT22;37713;53.254;6.460;2023-03-01T07:40:17;-2.70;99.90
51637;DHT22;37713;53.254;6.460;2023-03-01T07:42:43;-2.70;99.90
51637;DHT22;37713;53.254;6.460;2023-03-01T07:45:09;-2.60;99.90
51637;DHT22;37713;53.254;6.460;2023-03-01T07:47:35;-2.60;99.90
51637;DHT22;37713;53.254;6.460;2023-03-01T07:50:02;-2.50;99.90
51637;DHT22;37713;53.254;6.460;2023-03-01T07:52:28;-2.40;99.90
51637;DHT22;37713;53.254;6.460;2023-03-01T07:54:56;-2.40;99.90
51637;DHT22;37713;53.254;6.460;2023-03-01T07:57:23;-2.30;99.90
51637;DHT22;37713;53.254;6.460;2023-03-01T07:59:48;-2.30;99.90
51637;DHT22;37713;53.254;6.460;2023-03-01T08:02:14;-2.20;99.90
51637;DHT22;37713;53.254;6.460;2023-03-01T08:04:41;-2.10;99.90
51637;DHT22;37713;53.254;6.460;2023-03-01T08:07:07;-2.00;99.90
51637;DHT22;37713;53.254;6.460;2023-03-01T08:09:37;-1.90;99.90
51637;DHT22;37713;53.254;6.460;2023-03-01T08:12:04;-1.80;99.90
51637;DHT22;37713;53.254;6.460;2023-03-01T08:14:31;-1.70;99.90
51637;DHT22;37713;53.254;6.460;2023-03-01T08:16:57;-1.60;99.90
51637;DHT22;37713;53.254;6.460;2023-03-01T08:19:24;-1.50;99.90
51637;DHT22;37713;53.254;6.460;2023-03-01T08:21:53;-1.50;99.90
51637;DHT22;37713;53.254;6.460;2023-03-01T08:24:19;-1.40;99.90
51637;DHT22;37713;53.254;6.460;2023-03-01T08:26:45;-1.30;99.90
51637;DHT22;37713;53.254;6.460;2023-03-01T08:29:10;-1.20;99.90
51637;DHT22;37713;53.254;6.460;2023-03-01T08:31:39;-1.10;99.90
51637;DHT22;37713;53.254;6.460;2023-03-01T08:34:08;-0.90;99.90
51637;DHT22;37713;53.254;6.460;2023-03-01T08:36:42;-0.80;99.90
51637;DHT22;37713;53.254;6.460;2023-03-01T08:39:10;-0.70;99.90
51637;DHT22;37713;53.254;6.460;2023-03-01T08:41:36;-0.60;99.90
51637;DHT22;37713;53.254;6.460;2023-03-01T08:44:02;-0.50;99.90
51637;DHT22;37713;53.254;6.460;2023-03-01T08:46:33;-0.40;99.90
51637;DHT22;37713;53.254;6.460;2023-03-01T08:48:59;-0.20;99.90
51637;DHT22;37713;53.254;6.460;2023-03-01T08:51:26;0.10;99.90
51637;DHT22;37713;53.254;6.460;2023-03-01T08:53:52;0.90;99.90
51637;DHT22;37713;53.254;6.460;2023-03-01T08:56:18;0.70;99.90
51637;DHT22;37713;53.254;6.460;2023-03-01T08:58:46;0.80;99.90
51637;DHT22;37713;53.254;6.460;2023-03-01T09:01:13;0.90;99.90
51637;DHT22;37713;53.254;6.460;2023-03-01T09:03:40;1.10;99.90
51637;DHT22;37713;53.254;6.460;2023-03-01T09:06:07;1.10;99.90
51637;DHT22;37713;53.254;6.460;2023-03-01T09:08:41;1.30;99.90
51637;DHT22;37713;53.254;6.460;2023-03-01T09:11:10;1.30;99.90
51637;DHT22;37713;53.254;6.460;2023-03-01T09:13:37;1.40;99.90
51637;DHT22;37713;53.254;6.460;2023-03-01T09:16:05;1.50;99.90
51637;DHT22;37713;53.254;6.460;2023-03-01T09:18:31;1.60;99.90
51637;DHT22;37713;53.254;6.460;2023-03-01T09:21:06;1.60;99.90
51637;DHT22;37713;53.254;6.460;2023-03-01T09:23:40;1.70;99.90
51637;DHT22;37713;53.254;6.460;2023-03-01T09:26:08;1.90;99.90
51637;DHT22;37713;53.254;6.460;2023-03-01T09:28:38;2.00;99.90
51637;DHT22;37713;53.254;6.460;2023-03-01T09:31:05;2.10;99.90
51637;DHT22;37713;53.254;6.460;2023-03-01T09:33:32;2.20;99.90
51637;DHT22;37713;53.254;6.460;2023-03-01T09:38:24;2.40;99.90
51637;DHT22;37713;53.254;6.460;2023-03-01T09:40:50;2.50;99.90
51637;DHT22;37713;53.254;6.460;2023-03-01T09:43:25;2.60;99.90
51637;DHT22;37713;53.254;6.460;2023-03-01T09:45:56;2.60;99.90
51637;DHT22;37713;53.254;6.460;2023-03-01T09:48:25;2.70;99.90
51637;DHT22;37713;53.254;6.460;2023-03-01T09:50:52;2.80;99.90
51637;DHT22;37713;53.254;6.460;2023-03-01T09:53:26;2.90;99.90
51637;DHT22;37713;53.254;6.460;2023-03-01T09:56:03;3.00;99.90
51637;DHT22;37713;53.254;6.460;2023-03-01T10:03:48;3.40;99.90
51637;DHT22;37713;53.254;6.460;2023-03-01T10:06:22;3.50;99.90
51637;DHT22;37713;53.254;6.460;2023-03-01T10:08:56;3.60;99.90
51637;DHT22;37713;53.254;6.460;2023-03-01T10:11:28;3.70;99.90
51637;DHT22;37713;53.254;6.460;2023-03-01T10:14:07;3.70;99.90
51637;DHT22;37713;53.254;6.460;2023-03-01T10:16:43;3.80;99.90
51637;DHT22;37713;53.254;6.460;2023-03-01T10:19:27;3.90;99.90
51637;DHT22;37713;53.254;6.460;2023-03-01T10:22:00;3.90;99.90
51637;DHT22;37713;53.254;6.460;2023-03-01T10:24:31;4.10;99.90
51637;DHT22;37713;53.254;6.460;2023-03-01T10:27:06;4.20;99.90
51637;DHT22;37713;53.254;6.460;2023-03-01T10:29:57;4.30;99.90
51637;DHT22;37713;53.254;6.460;2023-03-01T10:32:25;4.50;99.90
51637;DHT22;37713;53.254;6.460;2023-03-01T10:34:51;4.60;99.90
51637;DHT22;37713;53.254;6.460;2023-03-01T10:37:19;4.70;99.90
51637;DHT22;37713;53.254;6.460;2023-03-01T10:40:07;4.80;99.90
51637;DHT22;37713;53.254;6.460;2023-03-01T10:42:54;4.80;99.90
51637;DHT22;37713;53.254;6.460;2023-03-01T10:48:10;4.90;99.90
51637;DHT22;37713;53.254;6.460;2023-03-01T10:50:38;5.00;99.90
51637;DHT22;37713;53.254;6.460;2023-03-01T10:53:22;5.00;99.90
51637;DHT22;37713;53.254;6.460;2023-03-01T10:58:26;5.10;99.90
51637;DHT22;37713;53.254;6.460;2023-03-01T11:03:22;5.10;99.90
51637;DHT22;37713;53.254;6.460;2023-03-01T11:08:30;5.20;99.90
51637;DHT22;37713;53.254;6.460;2023-03-01T11:13:31;5.40;99.90
51637;DHT22;37713;53.254;6.460;2023-03-01T11:16:10;5.40;99.90
51637;DHT22;37713;53.254;6.460;2023-03-01T11:18:37;5.50;99.90
51637;DHT22;37713;53.254;6.460;2023-03-01T11:21:03;5.60;99.90
51637;DHT22;37713;53.254;6.460;2023-03-01T11:23:31;5.60;99.90
51637;DHT22;37713;53.254;6.460;2023-03-01T11:26:07;5.70;99.90
51637;DHT22;37713;53.254;6.460;2023-03-01T11:28:37;5.70;99.90
51637;DHT22;37713;53.254;6.460;2023-03-01T11:31:06;5.80;99.90
51637;DHT22;37713;53.254;6.460;2023-03-01T11:36:32;5.90;99.90
51637;DHT22;37713;53.254;6.460;2023-03-01T11:39:07;5.90;99.90
51637;DHT22;37713;53.254;6.460;2023-03-01T11:41:40;5.90;99.90
51637;DHT22;37713;53.254;6.460;2023-03-01T11:44:20;6.00;99.90
51637;DHT22;37713;53.254;6.460;2023-03-01T11:46:50;6.10;99.90
51637;DHT22;37713;53.254;6.460;2023-03-01T11:52:27;6.10;99.90
51637;DHT22;37713;53.254;6.460;2023-03-01T12:06:52;6.50;99.90
51637;DHT22;37713;53.254;6.460;2023-03-01T12:39:24;7.00;99.90
51637;DHT22;37713;53.254;6.460;2023-03-01T12:44:47;7.10;99.90
51637;DHT22;37713;53.254;6.460;2023-03-01T12:50:11;7.30;99.90
51637;DHT22;37713;53.254;6.460;2023-03-01T12:52:46;7.30;99.90
51637;DHT22;37713;53.254;6.460;2023-03-01T12:58:35;7.40;99.90
51637;DHT22;37713;53.254;6.460;2023-03-01T13:04:06;7.50;99.90
51637;DHT22;37713;53.254;6.460;2023-03-01T13:09:30;7.50;99.90
51637;DHT22;37713;53.254;6.460;2023-03-01T13:12:00;7.60;99.90
51637;DHT22;37713;53.254;6.460;2023-03-01T13:14:34;7.60;99.90
51637;DHT22;37713;53.254;6.460;2023-03-01T13:17:00;7.60;99.90
51637;DHT22;37713;53.254;6.460;2023-03-01T13:19:27;7.60;99.90
51637;DHT22;37713;53.254;6.460;2023-03-01T13:21:58;7.70;99.90
51637;DHT22;37713;53.254;6.460;2023-03-01T13:32:20;7.70;99.90
51637;DHT22;37713;53.254;6.460;2023-03-01T13:34:48;7.70;99.90
51637;DHT22;37713;53.254;6.460;2023-03-01T13:37:29;7.80;99.90
51637;DHT22;37713;53.254;6.460;2023-03-01T13:39:58;7.80;99.90
51637;DHT22;37713;53.254;6.460;2023-03-01T13:42:42;7.80;99.90
51637;DHT22;37713;53.254;6.460;2023-03-01T13:48:00;7.80;99.90
51637;DHT22;37713;53.254;6.460;2023-03-01T13:50:29;7.80;99.90
51637;DHT22;37713;53.254;6.460;2023-03-01T13:53:00;7.80;99.90
51637;DHT22;37713;53.254;6.460;2023-03-01T13:55:38;7.80;99.90
51637;DHT22;37713;53.254;6.460;2023-03-01T13:58:27;7.80;99.90
51637;DHT22;37713;53.254;6.460;2023-03-01T14:03:28;7.80;99.90
51637;DHT22;37713;53.254;6.460;2023-03-01T14:06:05;7.80;99.90
51637;DHT22;37713;53.254;6.460;2023-03-01T14:08:33;7.70;99.90
51637;DHT22;37713;53.254;6.460;2023-03-01T14:17:17;7.50;99.90
51637;DHT22;37713;53.254;6.460;2023-03-01T14:19:46;7.50;99.90
51637;DHT22;37713;53.254;6.460;2023-03-01T14:22:28;7.50;99.90
51637;DHT22;37713;53.254;6.460;2023-03-01T14:25:01;7.40;99.90
51637;DHT22;37713;53.254;6.460;2023-03-01T14:27:37;7.40;99.90
51637;DHT22;37713;53.254;6.460;2023-03-01T14:30:26;7.40;99.90
51637;DHT22;37713;53.254;6.460;2023-03-01T14:33:05;7.30;99.90
51637;DHT22;37713;53.254;6.460;2023-03-01T14:35:34;7.40;99.90
51637;DHT22;37713;53.254;6.460;2023-03-01T14:38:01;7.30;99.90
51637;DHT22;37713;53.254;6.460;2023-03-01T14:40:35;7.30;99.90
51637;DHT22;37713;53.254;6.460;2023-03-01T14:43:08;7.30;99.90
51637;DHT22;37713;53.254;6.460;2023-03-01T14:45:35;7.30;99.90
51637;DHT22;37713;53.254;6.460;2023-03-01T14:48:03;7.30;99.90
51637;DHT22;37713;53.254;6.460;2023-03-01T14:50:35;7.20;99.90
51637;DHT22;37713;53.254;6.460;2023-03-01T14:53:06;7.20;99.90
51637;DHT22;37713;53.254;6.460;2023-03-01T14:55:41;7.20;99.90
51637;DHT22;37713;53.254;6.460;2023-03-01T14:58:15;7.20;99.90
51637;DHT22;37713;53.254;6.460;2023-03-01T15:00:57;7.20;99.90
51637;DHT22;37713;53.254;6.460;2023-03-01T15:03:27;7.20;99.90
51637;DHT22;37713;53.254;6.460;2023-03-01T15:05:56;7.10;99.90
51637;DHT22;37713;53.254;6.460;2023-03-01T15:08:26;7.20;99.90
51637;DHT22;37713;53.254;6.460;2023-03-01T15:10:59;7.20;99.90
51637;DHT22;37713;53.254;6.460;2023-03-01T15:13:30;7.10;99.90
51637;DHT22;37713;53.254;6.460;2023-03-01T15:16:13;7.00;99.90
51637;DHT22;37713;53.254;6.460;2023-03-01T15:18:56;7.00;99.90
51637;DHT22;37713;53.254;6.460;2023-03-01T15:21:33;7.00;99.90
51637;DHT22;37713;53.254;6.460;2023-03-01T15:24:07;6.90;99.90
51637;DHT22;37713;53.254;6.460;2023-03-01T15:26:58;6.90;99.90
51637;DHT22;37713;53.254;6.460;2023-03-01T15:29:32;6.90;99.90
51637;DHT22;37713;53.254;6.460;2023-03-01T15:34:47;6.80;99.90
51637;DHT22;37713;53.254;6.460;2023-03-01T15:39:58;6.80;99.90
51637;DHT22;37713;53.254;6.460;2023-03-01T15:47:40;6.70;99.90
51637;DHT22;37713;53.254;6.460;2023-03-01T15:50:23;6.70;99.90
51637;DHT22;37713;53.254;6.460;2023-03-01T15:52:49;6.70;99.90
51637;DHT22;37713;53.254;6.460;2023-03-01T15:55:18;6.70;99.90
51637;DHT22;37713;53.254;6.460;2023-03-01T15:57:44;6.60;99.90
51637;DHT22;37713;53.254;6.460;2023-03-01T16:00:12;6.60;99.90
51637;DHT22;37713;53.254;6.460;2023-03-01T16:02:40;6.50;99.90
51637;DHT22;37713;53.254;6.460;2023-03-01T16:05:18;6.40;99.90
51637;DHT22;37713;53.254;6.460;2023-03-01T16:07:44;6.40;99.90
51637;DHT22;37713;53.254;6.460;2023-03-01T16:10:10;6.30;99.90
51637;DHT22;37713;53.254;6.460;2023-03-01T16:12:36;6.20;99.90
51637;DHT22;37713;53.254;6.460;2023-03-01T16:15:02;6.20;99.90
51637;DHT22;37713;53.254;6.460;2023-03-01T16:17:28;6.20;99.90
51637;DHT22;37713;53.254;6.460;2023-03-01T16:19:53;6.10;99.90
51637;DHT22;37713;53.254;6.460;2023-03-01T16:22:19;6.10;99.90
51637;DHT22;37713;53.254;6.460;2023-03-01T16:24:50;6.00;99.90
51637;DHT22;37713;53.254;6.460;2023-03-01T16:27:16;6.00;99.90
51637;DHT22;37713;53.254;6.460;2023-03-01T16:29:41;5.90;99.90
51637;DHT22;37713;53.254;6.460;2023-03-01T16:32:07;5.80;99.90
51637;DHT22;37713;53.254;6.460;2023-03-01T16:34:33;5.80;99.90
51637;DHT22;37713;53.254;6.460;2023-03-01T16:36:59;5.70;99.90
51637;DHT22;37713;53.254;6.460;2023-03-01T16:39:25;5.60;99.90
51637;DHT22;37713;53.254;6.460;2023-03-01T16:41:51;5.60;99.90
51637;DHT22;37713;53.254;6.460;2023-03-01T16:44:16;5.50;99.90
51637;DHT22;37713;53.254;6.460;2023-03-01T16:46:42;5.40;99.90
51637;DHT22;37713;53.254;6.460;2023-03-01T16:49:09;5.30;99.90
51637;DHT22;37713;53.254;6.460;2023-03-01T16:51:35;5.20;99.90
51637;DHT22;37713;53.254;6.460;2023-03-01T16:54:01;5.20;99.90
51637;DHT22;37713;53.254;6.460;2023-03-01T16:56:27;5.10;99.90
51637;DHT22;37713;53.254;6.460;2023-03-01T16:58:55;5.00;99.90
51637;DHT22;37713;53.254;6.460;2023-03-01T17:01:21;4.90;99.90
51637;DHT22;37713;53.254;6.460;2023-03-01T17:03:50;4.90;99.90
51637;DHT22;37713;53.254;6.460;2023-03-01T17:06:19;4.80;99.90
51637;DHT22;37713;53.254;6.460;2023-03-01T17:08:50;4.70;99.90
51637;DHT22;37713;53.254;6.460;2023-03-01T17:11:18;4.60;99.90
51637;DHT22;37713;53.254;6.460;2023-03-01T17:13:44;4.50;99.90
51637;DHT22;37713;53.254;6.460;2023-03-01T17:16:15;4.40;99.90
51637;DHT22;37713;53.254;6.460;2023-03-01T17:18:41;4.40;99.90
51637;DHT22;37713;53.254;6.460;2023-03-01T17:21:08;4.30;99.90
51637;DHT22;37713;53.254;6.460;2023-03-01T17:23:36;4.30;99.90
51637;DHT22;37713;53.254;6.460;2023-03-01T17:26:04;4.20;99.90
51637;DHT22;37713;53.254;6.460;2023-03-01T17:28:32;4.10;99.90
51637;DHT22;37713;53.254;6.460;2023-03-01T17:31:00;4.00;99.90
51637;DHT22;37713;53.254;6.460;2023-03-01T17:33:27;4.00;99.90
51637;DHT22;37713;53.254;6.460;2023-03-01T17:35:55;4.00;99.90
51637;DHT22;37713;53.254;6.460;2023-03-01T17:38:22;3.90;99.90
51637;DHT22;37713;53.254;6.460;2023-03-01T17:40:48;3.80;99.90
51637;DHT22;37713;53.254;6.460;2023-03-01T17:43:15;3.80;99.90
51637;DHT22;37713;53.254;6.460;2023-03-01T17:45:42;3.70;99.90
51637;DHT22;37713;53.254;6.460;2023-03-01T17:48:12;3.70;99.90
51637;DHT22;37713;53.254;6.460;2023-03-01T17:50:39;3.70;99.90
51637;DHT22;37713;53.254;6.460;2023-03-01T17:53:05;3.60;99.90
51637;DHT22;37713;53.254;6.460;2023-03-01T17:55:42;3.60;99.90
51637;DHT22;37713;53.254;6.460;2023-03-01T17:58:11;3.50;99.90
51637;DHT22;37713;53.254;6.460;2023-03-01T18:00:37;3.50;99.90
51637;DHT22;37713;53.254;6.460;2023-03-01T18:03:03;3.40;99.90